Time;durP1;ratioP1;P1;durP2;ratioP2;P2;SDS_P1;SDS_P2;PMS_P1;PMS_P2;Temp;Humidity;BMP_temperature;BMP_pressure;BME280_temperature;BME280_humidity;BME280_pressure;Samples;Min_cycle;Max_cycle;Signal;HPM_P1;HPM_P2
2023/12/13 00:02:16;;;;;;;;;;;;;;;11.29;100.00;98987.34;7307506;19;19919;-68
2023/12/13 00:04:43;;;;;;;;;;;;;;;11.27;100.00;98986.75;7294162;19;19919;-68
2023/12/13 00:07:11;;;;;;;;;;;;;;;11.26;100.00;98989.59;7290335;19;19919;-67
2023/12/13 00:09:38;;;;;;;;;;;;;;;11.23;100.00;98993.44;7289025;19;20670;-67
2023/12/13 00:12:04;;;;;;;;;;;;;;;11.27;100.00;98989.41;7292786;19;19926;-68
2023/12/13 00:14:31;;;;;;;;;;;;;;;11.23;100.00;98988.16;7308043;19;20467;-67
2023/12/13 00:16:58;;;;;;;;;;;;;;;11.20;100.00;98990.41;7298072;19;20385;-67
2023/12/13 00:19:25;;;;;;;;;;;;;;;11.18;100.00;98982.69;7292574;19;19922;-67
2023/12/13 00:21:53;;;;;;;;;;;;;;;11.21;100.00;98990.19;7291088;19;19938;-68
2023/12/13 00:24:20;;;;;;;;;;;;;;;11.14;100.00;98992.81;7293563;19;20280;-68
2023/12/13 00:26:49;;;;;;;;;;;;;;;11.14;100.00;98982.28;7295708;19;19927;-68
2023/12/13 00:29:16;;;;;;;;;;;;;;;11.11;100.00;98992.44;7298620;19;20710;-69
2023/12/13 00:31:43;;;;;;;;;;;;;;;11.14;100.00;98989.38;7292743;19;19922;-69
2023/12/13 00:34:10;;;;;;;;;;;;;;;11.17;100.00;98991.63;7292714;19;19930;-68
2023/12/13 00:36:37;;;;;;;;;;;;;;;11.16;100.00;98982.09;7296990;19;20660;-69
2023/12/13 00:39:05;;;;;;;;;;;;;;;11.14;100.00;98977.03;7293508;19;19922;-68
2023/12/13 00:41:32;;;;;;;;;;;;;;;11.10;100.00;98978.44;7314117;19;19929;-68
2023/12/13 00:43:59;;;;;;;;;;;;;;;11.09;100.00;98976.81;7310984;19;19921;-67
2023/12/13 00:46:26;;;;;;;;;;;;;;;11.06;100.00;98982.50;7284154;19;20737;-67
2023/12/13 00:48:54;;;;;;;;;;;;;;;11.10;100.00;98977.63;7282783;19;20262;-69
2023/12/13 00:51:22;;;;;;;;;;;;;;;11.13;100.00;98982.50;7297301;19;21990;-67
2023/12/13 00:53:50;;;;;;;;;;;;;;;11.10;100.00;98983.72;7276644;19;20540;-66
2023/12/13 00:56:17;;;;;;;;;;;;;;;11.08;100.00;98983.09;7273505;19;20989;-67
2023/12/13 00:58:45;;;;;;;;;;;;;;;11.11;100.00;98987.16;7281859;19;20038;-69
2023/12/13 01:01:12;;;;;;;;;;;;;;;11.13;100.00;98993.81;7288052;19;19929;-68
2023/12/13 01:03:40;;;;;;;;;;;;;;;11.16;100.00;98992.63;7280577;19;20502;-67
2023/12/13 01:06:09;;;;;;;;;;;;;;;11.13;100.00;98993.03;7278442;19;19930;-67
2023/12/13 01:08:37;;;;;;;;;;;;;;;11.13;100.00;98999.09;7284326;19;20331;-66
2023/12/13 01:11:08;;;;;;;;;;;;;;;11.17;100.00;98999.53;7282878;19;19934;-67
2023/12/13 01:13:36;;;;;;;;;;;;;;;11.17;100.00;99010.06;7279233;19;19926;-67
2023/12/13 01:16:02;;;;;;;;;;;;;;;11.16;100.00;99008.44;7298386;19;19922;-68
2023/12/13 01:18:29;;;;;;;;;;;;;;;11.15;100.00;99007.63;7300936;19;20221;-67
2023/12/13 01:20:57;;;;;;;;;;;;;;;11.14;100.00;99011.25;7275001;19;19919;-69
2023/12/13 01:23:24;;;;;;;;;;;;;;;11.14;100.00;99010.44;7282990;19;19926;-67
2023/12/13 01:25:51;;;;;;;;;;;;;;;11.17;100.00;99017.13;7288690;19;19934;-68
2023/12/13 01:28:18;;;;;;;;;;;;;;;11.15;100.00;99012.88;7286252;19;20455;-67
2023/12/13 01:30:45;;;;;;;;;;;;;;;11.14;100.00;99021.78;7283442;19;22797;-67
2023/12/13 01:33:12;;;;;;;;;;;;;;;11.19;100.00;99020.34;7284176;19;19915;-67
2023/12/13 01:35:39;;;;;;;;;;;;;;;11.19;100.00;99021.16;7296467;19;20491;-68
2023/12/13 01:38:06;;;;;;;;;;;;;;;11.21;100.00;99024.44;7285032;19;20023;-68
2023/12/13 01:40:33;;;;;;;;;;;;;;;11.19;100.00;99023.81;7290484;19;20612;-68
2023/12/13 01:43:00;;;;;;;;;;;;;;;11.18;100.00;99029.25;7285447;19;20976;-67
2023/12/13 01:45:28;;;;;;;;;;;;;;;11.17;100.00;99033.75;7287994;19;20351;-67
2023/12/13 01:47:55;;;;;;;;;;;;;;;11.18;100.00;99031.88;7277471;19;20522;-67
2023/12/13 01:50:24;;;;;;;;;;;;;;;11.21;100.00;99039.41;7300071;19;20795;-67
2023/12/13 01:52:52;;;;;;;;;;;;;;;11.19;100.00;99034.34;7294405;19;20200;-67
2023/12/13 01:55:19;;;;;;;;;;;;;;;11.20;100.00;99040.41;7289212;19;20282;-68
2023/12/13 01:57:47;;;;;;;;;;;;;;;11.17;100.00;99038.19;7284854;19;20346;-68
2023/12/13 02:00:14;;;;;;;;;;;;;;;11.15;100.00;99047.09;7288081;19;20762;-67
2023/12/13 02:02:42;;;;;;;;;;;;;;;11.16;100.00;99045.28;7294553;19;19926;-67
2023/12/13 02:05:11;;;;;;;;;;;;;;;11.11;100.00;99043.25;7291212;19;19949;-67
2023/12/13 02:07:38;;;;;;;;;;;;;;;11.11;100.00;99050.34;7280120;19;20584;-66
2023/12/13 02:10:06;;;;;;;;;;;;;;;11.11;100.00;99059.03;7298633;19;20188;-67
2023/12/13 02:12:34;;;;;;;;;;;;;;;11.06;100.00;99056.19;7291232;19;22336;-68
2023/12/13 02:15:01;;;;;;;;;;;;;;;11.07;100.00;99068.31;7286610;19;20006;-68
2023/12/13 02:17:29;;;;;;;;;;;;;;;11.06;100.00;99068.53;7281665;19;20253;-68
2023/12/13 02:19:56;;;;;;;;;;;;;;;11.06;100.00;99073.81;7292325;19;19930;-69
2023/12/13 02:22:23;;;;;;;;;;;;;;;11.05;100.00;99073.00;7291619;19;19922;-68
2023/12/13 02:24:52;;;;;;;;;;;;;;;11.09;100.00;99074.22;7284645;19;19967;-68
2023/12/13 02:27:21;;;;;;;;;;;;;;;11.06;100.00;99077.25;7285828;19;19929;-66
2023/12/13 02:29:48;;;;;;;;;;;;;;;11.07;100.00;99083.31;7289980;19;19949;-66
2023/12/13 02:32:15;;;;;;;;;;;;;;;11.05;100.00;99086.16;7291454;19;19968;-67
2023/12/13 02:34:43;;;;;;;;;;;;;;;11.09;100.00;99087.38;7287329;19;19923;-67
2023/12/13 02:37:10;;;;;;;;;;;;;;;11.10;100.00;99093.44;7297220;19;19922;-68
2023/12/13 02:39:37;;;;;;;;;;;;;;;11.07;100.00;99092.00;7281146;19;20488;-66
2023/12/13 02:42:04;;;;;;;;;;;;;;;11.06;100.00;99102.75;7281475;19;20432;-67
2023/12/13 02:44:31;;;;;;;;;;;;;;;11.04;100.00;99107.41;7284282;19;19926;-67
2023/12/13 02:46:59;;;;;;;;;;;;;;;11.00;100.00;99104.34;7306215;19;20009;-68
2023/12/13 02:49:26;;;;;;;;;;;;;;;10.98;100.00;99105.56;7320108;19;20404;-66
2023/12/13 02:51:53;;;;;;;;;;;;;;;10.99;100.00;99107.19;7320850;19;19926;-67
2023/12/13 02:54:19;;;;;;;;;;;;;;;10.96;100.00;99118.13;7322667;19;19989;-67
2023/12/13 02:56:46;;;;;;;;;;;;;;;10.98;100.00;99119.53;7314071;19;19921;-68
2023/12/13 02:59:13;;;;;;;;;;;;;;;11.00;100.00;99112.25;7286142;19;19936;-67
2023/12/13 03:01:40;;;;;;;;;;;;;;;10.97;100.00;99117.09;7291268;19;19970;-67
2023/12/13 03:04:07;;;;;;;;;;;;;;;10.96;100.00;99115.47;7290747;19;19923;-69
2023/12/13 03:06:34;;;;;;;;;;;;;;;10.93;100.00;99116.66;7279056;19;22097;-66
2023/12/13 03:09:01;;;;;;;;;;;;;;;10.94;100.00;99112.22;7293501;19;19927;-67
2023/12/13 03:11:28;;;;;;;;;;;;;;;10.93;100.00;99123.75;7304312;19;21017;-67
2023/12/13 03:13:55;;;;;;;;;;;;;;;10.91;100.00;99117.91;7289224;19;19922;-67
2023/12/13 03:16:22;;;;;;;;;;;;;;;10.92;100.00;99117.69;7303006;19;19918;-67
2023/12/13 03:18:49;;;;;;;;;;;;;;;10.95;100.00;99129.63;7298409;19;19936;-67
2023/12/13 03:21:16;;;;;;;;;;;;;;;10.92;100.00;99128.19;7292125;19;20292;-67
2023/12/13 03:23:43;;;;;;;;;;;;;;;10.90;100.00;99132.88;7281881;19;19923;-67
2023/12/13 03:26:10;;;;;;;;;;;;;;;10.91;100.00;99133.69;7284526;19;19927;-68
2023/12/13 03:28:37;;;;;;;;;;;;;;;10.93;100.00;99129.84;7281848;19;20512;-67
2023/12/13 03:31:07;;;;;;;;;;;;;;;10.92;100.00;99132.69;7300043;19;19930;-67
2023/12/13 03:33:34;;;;;;;;;;;;;;;10.94;100.00;99135.91;7291022;19;19931;-68
2023/12/13 03:36:01;;;;;;;;;;;;;;;10.94;100.00;99135.91;7315060;19;20412;-67
2023/12/13 03:38:28;;;;;;;;;;;;;;;10.93;100.00;99142.97;7313070;19;20201;-67
2023/12/13 03:40:55;;;;;;;;;;;;;;;10.92;100.00;99144.00;7292001;19;20003;-68
2023/12/13 03:43:22;;;;;;;;;;;;;;;10.93;100.00;99152.69;7286941;19;20015;-66
2023/12/13 03:45:49;;;;;;;;;;;;;;;10.93;100.00;99150.88;7296574;19;19953;-67
2023/12/13 03:48:16;;;;;;;;;;;;;;;10.96;100.00;99147.06;7288939;19;21207;-66
2023/12/13 03:50:43;;;;;;;;;;;;;;;10.97;100.00;99159.22;7286830;19;19922;-68
2023/12/13 03:53:10;;;;;;;;;;;;;;;10.95;100.00;99162.03;7289291;19;19966;-68
2023/12/13 03:55:37;;;;;;;;;;;;;;;10.95;100.00;99167.28;7305487;19;19929;-67
2023/12/13 03:58:04;;;;;;;;;;;;;;;10.96;100.00;99161.03;7297018;19;19926;-67
2023/12/13 04:00:31;;;;;;;;;;;;;;;10.99;100.00;99165.88;7292765;19;20246;-68
2023/12/13 04:02:58;;;;;;;;;;;;;;;10.98;100.00;99173.97;7287056;19;19930;-67
2023/12/13 04:05:26;;;;;;;;;;;;;;;10.98;100.00;99169.53;7304108;19;20494;-69
2023/12/13 04:07:53;;;;;;;;;;;;;;;10.97;100.00;99173.16;7299209;19;20235;-71
2023/12/13 04:10:20;;;;;;;;;;;;;;;10.94;100.00;99170.94;7292611;19;19975;-68
2023/12/13 04:12:47;;;;;;;;;;;;;;;10.96;100.00;99181.28;7307430;19;19914;-67
2023/12/13 04:15:14;;;;;;;;;;;;;;;10.97;100.00;99185.53;7277130;19;19979;-67
2023/12/13 04:17:41;;;;;;;;;;;;;;;10.94;100.00;99183.28;7302436;19;20323;-68
2023/12/13 04:20:09;;;;;;;;;;;;;;;10.86;100.00;99183.44;7296664;19;20022;-67
2023/12/13 04:22:36;;;;;;;;;;;;;;;10.86;100.00;99196.59;7289665;19;20569;-68
2023/12/13 04:25:04;;;;;;;;;;;;;;;10.86;100.00;99202.69;7285415;19;21977;-70
2023/12/13 04:27:31;;;;;;;;;;;;;;;10.89;100.00;99207.53;7295931;19;19922;-68
2023/12/13 04:29:59;;;;;;;;;;;;;;;10.90;100.00;99211.81;7284890;19;20237;-68
2023/12/13 04:32:26;;;;;;;;;;;;;;;10.89;100.00;99217.25;7293256;19;21198;-67
2023/12/13 04:34:53;;;;;;;;;;;;;;;10.86;100.00;99210.56;7290515;19;19930;-67
2023/12/13 04:37:20;;;;;;;;;;;;;;;10.85;100.00;99208.94;7290265;19;19934;-67
2023/12/13 04:39:47;;;;;;;;;;;;;;;10.88;100.00;99207.72;7299174;19;20106;-67
2023/12/13 04:42:14;;;;;;;;;;;;;;;10.88;100.00;99213.00;7292383;19;20606;-68
2023/12/13 04:44:41;;;;;;;;;;;;;;;10.85;100.00;99210.75;7287874;19;20425;-67
2023/12/13 04:47:08;;;;;;;;;;;;;;;10.86;100.00;99215.03;7284980;19;19919;-67
2023/12/13 04:49:34;;;;;;;;;;;;;;;10.85;100.00;99218.66;7302629;19;20897;-67
2023/12/13 04:52:01;;;;;;;;;;;;;;;10.83;100.00;99221.47;7289597;19;19927;-67
2023/12/13 04:54:28;;;;;;;;;;;;;;;10.83;100.00;99224.09;7283829;19;19922;-67
2023/12/13 04:56:55;;;;;;;;;;;;;;;10.83;100.00;99221.47;7291985;19;19931;-67
2023/12/13 04:59:22;;;;;;;;;;;;;;;10.84;100.00;99232.81;7294588;19;19919;-66
2023/12/13 05:01:50;;;;;;;;;;;;;;;10.82;100.00;99227.72;7300006;19;20367;-67
2023/12/13 05:04:17;;;;;;;;;;;;;;;10.80;100.00;99229.75;7288357;19;19923;-66
2023/12/13 05:06:44;;;;;;;;;;;;;;;10.83;100.00;99232.00;7278359;19;19914;-67
2023/12/13 05:09:11;;;;;;;;;;;;;;;10.80;100.00;99235.03;7295860;19;19923;-69
2023/12/13 05:11:38;;;;;;;;;;;;;;;10.83;100.00;99233.81;7303069;19;20957;-69
2023/12/13 05:14:05;;;;;;;;;;;;;;;10.82;100.00;99237.47;7300823;19;19915;-67
2023/12/13 05:16:32;;;;;;;;;;;;;;;10.75;100.00;99233.97;7288478;19;19922;-67
2023/12/13 05:19:00;;;;;;;;;;;;;;;10.76;100.00;99248.75;7293770;19;19941;-67
2023/12/13 05:21:28;;;;;;;;;;;;;;;10.73;100.00;99249.94;7294589;19;19922;-67
2023/12/13 05:23:55;;;;;;;;;;;;;;;10.72;100.00;99243.88;7301547;19;19938;-68
2023/12/13 05:26:22;;;;;;;;;;;;;;;10.71;100.00;99250.16;7293365;19;20159;-68
2023/12/13 05:28:49;;;;;;;;;;;;;;;10.70;100.00;99245.09;7303232;19;20030;-68
2023/12/13 05:31:18;;;;;;;;;;;;;;;10.68;100.00;99254.97;7293966;19;19922;-67
2023/12/13 05:33:46;;;;;;;;;;;;;;;10.66;100.00;99254.38;7294744;19;19927;-67
2023/12/13 05:36:13;;;;;;;;;;;;;;;10.65;100.00;99253.56;7284555;19;19956;-68
2023/12/13 05:38:41;;;;;;;;;;;;;;;10.66;100.00;99257.81;7296118;19;19982;-67
2023/12/13 05:41:08;;;;;;;;;;;;;;;10.66;100.00;99254.38;7287156;19;20213;-68
2023/12/13 05:43:35;;;;;;;;;;;;;;;10.66;100.00;99257.81;7281409;19;19960;-68
2023/12/13 05:46:02;;;;;;;;;;;;;;;10.68;100.00;99263.69;7281681;19;19929;-68
2023/12/13 05:48:29;;;;;;;;;;;;;;;10.70;100.00;99269.56;7292201;19;19937;-68
2023/12/13 05:50:56;;;;;;;;;;;;;;;10.70;100.00;99269.56;7283966;19;19961;-68
2023/12/13 05:53:24;;;;;;;;;;;;;;;10.69;100.00;99275.00;7292542;19;20330;-68
2023/12/13 05:55:52;;;;;;;;;;;;;;;10.66;100.00;99284.13;7286496;19;19934;-67
2023/12/13 05:58:19;;;;;;;;;;;;;;;10.65;100.00;99285.13;7279267;19;20525;-66
2023/12/13 06:00:46;;;;;;;;;;;;;;;10.63;100.00;99289.75;7282204;19;20580;-67
2023/12/13 06:03:15;;;;;;;;;;;;;;;10.60;100.00;99284.88;7302366;19;19964;-67
2023/12/13 06:05:42;;;;;;;;;;;;;;;10.59;100.00;99298.22;7294148;19;20278;-67
2023/12/13 06:08:09;;;;;;;;;;;;;;;10.57;100.00;99290.50;7293498;19;20230;-69
2023/12/13 06:10:38;;;;;;;;;;;;;;;10.56;100.00;99293.34;7294124;19;19929;-67
2023/12/13 06:13:05;;;;;;;;;;;;;;;10.54;100.00;99292.72;7285351;19;20462;-67
2023/12/13 06:15:34;;;;;;;;;;;;;;;10.56;100.00;99291.53;7295131;19;20922;-68
2023/12/13 06:18:02;;;;;;;;;;;;;;;10.59;100.00;99300.84;7295824;19;19960;-68
2023/12/13 06:20:29;;;;;;;;;;;;;;;10.61;100.00;99301.47;7295590;19;21312;-68
2023/12/13 06:22:56;;;;;;;;;;;;;;;10.61;100.00;99306.72;7293190;19;20287;-67
2023/12/13 06:25:24;;;;;;;;;;;;;;;10.60;100.00;99315.63;7291802;19;21088;-68
2023/12/13 06:27:52;;;;;;;;;;;;;;;10.61;100.00;99315.44;7294688;19;19942;-67
2023/12/13 06:30:19;;;;;;;;;;;;;;;10.62;100.00;99311.78;7285077;19;19918;-67
2023/12/13 06:32:46;;;;;;;;;;;;;;;10.66;100.00;99323.56;7293293;19;19919;-67
2023/12/13 06:35:14;;;;;;;;;;;;;;;10.66;100.00;99328.00;7294910;19;20315;-67
2023/12/13 06:37:41;;;;;;;;;;;;;;;10.68;100.00;99332.06;7283278;19;19915;-68
2023/12/13 06:40:09;;;;;;;;;;;;;;;10.70;100.00;99335.34;7287974;19;20676;-67
2023/12/13 06:42:36;;;;;;;;;;;;;;;10.70;99.41;99340.59;7285263;19;19918;-67
2023/12/13 06:45:03;;;;;;;;;;;;;;;10.70;98.84;99345.03;7274279;19;20486;-69
2023/12/13 06:47:30;;;;;;;;;;;;;;;10.70;98.74;99347.66;7275717;19;20242;-67
2023/12/13 06:49:58;;;;;;;;;;;;;;;10.72;98.79;99349.09;7295470;19;20611;-67
2023/12/13 06:52:25;;;;;;;;;;;;;;;10.70;98.35;99347.66;7290117;19;20978;-67
2023/12/13 06:54:53;;;;;;;;;;;;;;;10.71;98.05;99358.00;7294807;19;20385;-68
2023/12/13 06:57:20;;;;;;;;;;;;;;;10.75;98.21;99363.69;7298327;19;19918;-67
2023/12/13 06:59:47;;;;;;;;;;;;;;;10.77;97.76;99372.19;7286644;19;20839;-67
2023/12/13 07:02:15;;;;;;;;;;;;;;;10.76;97.38;99360.06;7284819;19;19915;-69
2023/12/13 07:04:43;;;;;;;;;;;;;;;10.73;97.53;99366.50;7303046;19;20380;-66
2023/12/13 07:07:14;;;;;;;;;;;;;;;10.71;97.32;99375.59;7291400;19;20401;-66
2023/12/13 07:09:44;;;;;;;;;;;;;;;10.68;97.30;99376.78;7293042;19;22027;-69
2023/12/13 07:12:11;;;;;;;;;;;;;;;10.70;97.57;99381.88;7282191;19;19915;-68
2023/12/13 07:14:38;;;;;;;;;;;;;;;10.72;97.78;99388.53;7304900;19;20275;-69
2023/12/13 07:17:05;;;;;;;;;;;;;;;10.71;97.60;99386.13;7287569;19;19923;-68
2023/12/13 07:19:34;;;;;;;;;;;;;;;10.76;97.49;99393.44;7301418;19;19926;-67
2023/12/13 07:22:01;;;;;;;;;;;;;;;10.73;96.93;99395.44;7305162;19;19918;-66
2023/12/13 07:24:28;;;;;;;;;;;;;;;10.70;96.82;99398.47;7298455;19;19983;-67
2023/12/13 07:26:55;;;;;;;;;;;;;;;10.71;96.37;99400.09;7302635;19;20520;-70
2023/12/13 07:29:22;;;;;;;;;;;;;;;10.73;96.07;99405.97;7299546;19;20206;-68
2023/12/13 07:31:50;;;;;;;;;;;;;;;10.68;95.42;99397.00;7288107;19;19926;-67
2023/12/13 07:34:18;;;;;;;;;;;;;;;10.67;95.68;99404.09;7302446;19;19926;-67
2023/12/13 07:36:48;;;;;;;;;;;;;;;10.64;96.22;99417.63;7311715;19;19914;-68
2023/12/13 07:39:15;;;;;;;;;;;;;;;10.64;96.41;99425.50;7303912;19;19962;-68
2023/12/13 07:41:43;;;;;;;;;;;;;;;10.63;95.99;99429.13;7304759;19;19938;-67
2023/12/13 07:44:11;;;;;;;;;;;;;;;10.64;95.84;99424.69;7281163;19;19922;-66
2023/12/13 07:46:39;;;;;;;;;;;;;;;10.61;95.45;99431.16;7295436;19;21334;-68
2023/12/13 07:49:06;;;;;;;;;;;;;;;10.60;95.68;99426.09;7289891;19;20014;-68
2023/12/13 07:51:34;;;;;;;;;;;;;;;10.60;96.24;99429.53;7288203;19;19915;-68
2023/12/13 07:54:02;;;;;;;;;;;;;;;10.57;96.71;99435.16;7303280;19;19935;-67
2023/12/13 07:56:30;;;;;;;;;;;;;;;10.54;96.40;99434.72;7287924;19;19918;-67
2023/12/13 07:58:58;;;;;;;;;;;;;;;10.51;96.73;99440.34;7307250;19;20474;-67
2023/12/13 08:01:27;;;;;;;;;;;;;;;10.49;96.83;99450.25;7279592;19;19986;-68
2023/12/13 08:03:56;;;;;;;;;;;;;;;10.42;97.16;99444.09;7286408;19;20377;-68
2023/12/13 08:06:22;;;;;;;;;;;;;;;10.44;98.12;99456.06;7297643;19;20128;-68
2023/12/13 08:08:51;;;;;;;;;;;;;;;10.45;98.82;99454.25;7273268;19;19982;-67
2023/12/13 08:11:20;;;;;;;;;;;;;;;10.43;98.96;99454.44;7278344;19;19923;-68
2023/12/13 08:13:47;;;;;;;;;;;;;;;10.41;98.43;99455.63;7289868;19;19955;-68
2023/12/13 08:16:13;;;;;;;;;;;;;;;10.43;98.70;99459.69;7291210;19;20035;-68
2023/12/13 08:18:41;;;;;;;;;;;;;;;10.44;99.27;99458.69;7289254;19;19933;-68
2023/12/13 08:21:23;;;;;;;;;;;;;;;10.49;100.00;99458.13;7296758;19;19918;-68
2023/12/13 08:24:05;;;;;;;;;;;;;;;10.57;100.00;99466.69;7293339;19;19919;-68
2023/12/13 08:26:32;;;;;;;;;;;;;;;10.54;100.00;99468.91;7277510;19;19933;-68
2023/12/13 08:29:00;;;;;;;;;;;;;;;10.51;99.93;99461.41;7290798;19;22248;-67
2023/12/13 08:31:33;;;;;;;;;;;;;;;10.50;100.00;99471.09;7293401;19;20506;-67
2023/12/13 08:34:02;;;;;;;;;;;;;;;10.48;99.92;99475.72;7283354;19;20307;-69
2023/12/13 08:36:30;;;;;;;;;;;;;;;10.45;99.54;99477.91;7293279;19;19921;-67
2023/12/13 08:39:02;;;;;;;;;;;;;;;10.46;100.00;99476.91;7303018;19;20002;-68
2023/12/13 08:41:30;;;;;;;;;;;;;;;10.40;100.00;99491.63;7304833;19;20188;-67
2023/12/13 08:44:01;;;;;;;;;;;;;;;10.42;99.96;99492.22;7287311;19;19918;-68
2023/12/13 08:46:29;;;;;;;;;;;;;;;10.46;99.88;99498.78;7283179;19;19956;-66
2023/12/13 08:48:57;;;;;;;;;;;;;;;10.43;99.09;99501.75;7279914;19;19919;-67
2023/12/13 08:51:25;;;;;;;;;;;;;;;10.45;99.65;99515.53;7291202;19;19918;-67
2023/12/13 08:53:54;;;;;;;;;;;;;;;10.45;99.18;99512.09;7300575;19;19949;-67
2023/12/13 08:56:23;;;;;;;;;;;;;;;10.46;99.92;99513.72;7279853;19;19922;-67
2023/12/13 08:58:51;;;;;;;;;;;;;;;10.51;100.00;99511.38;7286305;19;19929;-68
2023/12/13 09:01:19;;;;;;;;;;;;;;;10.52;100.00;99523.47;7287956;19;19931;-68
2023/12/13 09:03:51;;;;;;;;;;;;;;;10.51;99.90;99522.69;7292506;19;20325;-68
2023/12/13 09:06:19;;;;;;;;;;;;;;;10.55;98.98;99531.03;7291302;19;20961;-67
2023/12/13 09:08:47;;;;;;;;;;;;;;;10.56;99.22;99537.91;7278644;19;20186;-67
2023/12/13 09:11:16;;;;;;;;;;;;;;;10.58;99.54;99541.16;7277240;19;20491;-67
2023/12/13 09:13:44;;;;;;;;;;;;;;;10.56;98.92;99546.63;7297229;19;19918;-67
2023/12/13 09:16:19;;;;;;;;;;;;;;;10.60;99.22;99547.88;7281227;19;20399;-67
2023/12/13 09:18:53;;;;;;;;;;;;;;;10.61;98.41;99546.88;7291623;19;19918;-67
2023/12/13 09:21:22;;;;;;;;;;;;;;;10.60;98.30;99555.78;7298863;19;19926;-68
2023/12/13 09:23:50;;;;;;;;;;;;;;;10.61;98.46;99560.03;7291937;19;20010;-69
2023/12/13 09:26:19;;;;;;;;;;;;;;;10.61;98.95;99554.78;7297840;19;19926;-67
2023/12/13 09:28:55;;;;;;;;;;;;;;;10.65;99.49;99556.03;7294333;19;19930;-68
2023/12/13 09:31:24;;;;;;;;;;;;;;;10.67;99.93;99561.91;7278495;19;22520;-68
2023/12/13 09:33:52;;;;;;;;;;;;;;;10.69;100.00;99572.25;7287658;19;19974;-67
2023/12/13 09:36:24;;;;;;;;;;;;;;;10.71;100.00;99575.53;7282513;19;20899;-67
2023/12/13 09:38:58;;;;;;;;;;;;;;;10.67;100.00;99577.69;7288636;19;19930;-67
2023/12/13 09:41:31;;;;;;;;;;;;;;;10.64;99.87;99585.97;7280156;19;19926;-68
2023/12/13 09:43:58;;;;;;;;;;;;;;;10.65;100.00;99589.41;7278021;19;19914;-68
2023/12/13 09:46:28;;;;;;;;;;;;;;;10.69;99.17;99590.66;7290143;19;19938;-68
2023/12/13 09:48:55;;;;;;;;;;;;;;;10.65;99.56;99600.75;7301165;19;20368;-68
2023/12/13 09:51:23;;;;;;;;;;;;;;;10.64;99.85;99604.38;7282008;19;20009;-67
2023/12/13 09:53:52;;;;;;;;;;;;;;;10.62;99.76;99609.00;7286482;19;20487;-67
2023/12/13 09:56:21;;;;;;;;;;;;;;;10.62;100.00;99616.06;7286982;19;20385;-67
2023/12/13 09:58:52;;;;;;;;;;;;;;;10.65;99.87;99623.59;7289800;19;19926;-68
2023/12/13 10:01:19;;;;;;;;;;;;;;;10.64;100.00;99622.78;7289505;19;19922;-68
2023/12/13 10:03:47;;;;;;;;;;;;;;;10.70;100.00;99637.03;7306805;19;19960;-68
2023/12/13 10:06:15;;;;;;;;;;;;;;;10.68;100.00;99634.56;7302411;19;19918;-68
2023/12/13 10:08:51;;;;;;;;;;;;;;;10.70;99.78;99637.84;7293088;19;19930;-67
2023/12/13 10:11:19;;;;;;;;;;;;;;;10.69;100.00;99635.38;7287559;19;19915;-69
2023/12/13 10:13:47;;;;;;;;;;;;;;;10.74;100.00;99638.28;7284845;19;19941;-67
2023/12/13 10:16:19;;;;;;;;;;;;;;;10.79;100.00;99649.06;7284873;19;19960;-68
2023/12/13 10:18:48;;;;;;;;;;;;;;;10.81;98.32;99651.53;7290520;19;20470;-66
2023/12/13 10:21:15;;;;;;;;;;;;;;;10.81;98.46;99657.63;7291471;19;19921;-68
2023/12/13 10:23:46;;;;;;;;;;;;;;;10.85;99.08;99665.94;7295111;19;19930;-67
2023/12/13 10:26:14;;;;;;;;;;;;;;;10.80;99.19;99679.66;7279682;19;19919;-67
2023/12/13 10:28:59;;;;;;;;;;;;;;;10.75;99.17;99675.94;7289195;19;19925;-66
2023/12/13 10:31:42;;;;;;;;;;;;;;;10.73;99.39;99690.09;7296915;19;20490;-67
2023/12/13 10:34:18;;;;;;;;;;;;;;;10.73;98.70;99694.53;7274541;19;19927;-67
2023/12/13 10:36:47;;;;;;;;;;;;;;;10.61;97.01;99720.50;7305189;19;19922;-66
2023/12/13 10:39:24;;;;;;;;;;;;;;;10.54;95.99;99724.81;7287965;19;20669;-67
2023/12/13 10:41:55;;;;;;;;;;;;;;;10.51;95.58;99727.00;7285689;19;21191;-67
2023/12/13 10:44:23;;;;;;;;;;;;;;;10.51;95.67;99719.94;7295238;19;20493;-68
2023/12/13 10:46:56;;;;;;;;;;;;;;;10.47;94.15;99733.59;7289062;19;20810;-67
2023/12/13 10:49:25;;;;;;;;;;;;;;;10.46;93.53;99743.31;7299357;19;20348;-68
2023/12/13 10:52:06;;;;;;;;;;;;;;;10.39;91.62;99737.13;7315452;19;20280;-67
2023/12/13 10:54:34;;;;;;;;;;;;;;;10.38;91.78;99753.06;7289253;19;20467;-68
2023/12/13 10:57:04;;;;;;;;;;;;;;;10.33;90.91;99750.16;7287563;19;19970;-68
2023/12/13 10:59:33;;;;;;;;;;;;;;;10.30;91.36;99756.63;7284624;19;21861;-68
2023/12/13 11:02:01;;;;;;;;;;;;;;;10.27;90.39;99762.22;7295468;19;19925;-68
2023/12/13 11:04:29;;;;;;;;;;;;;;;10.28;91.07;99763.84;7299119;19;19931;-68
2023/12/13 11:07:04;;;;;;;;;;;;;;;10.27;89.03;99762.22;7295377;19;19937;-66
2023/12/13 11:09:51;;;;;;;;;;;;;;;10.28;88.97;99767.28;7292528;19;21093;-68
2023/12/13 11:12:24;;;;;;;;;;;;;;;10.29;89.43;99768.94;7291537;19;20743;-66
2023/12/13 11:14:52;;;;;;;;;;;;;;;10.28;87.79;99761.22;7288703;19;20137;-67
2023/12/13 11:17:21;;;;;;;;;;;;;;;10.28;87.95;99767.28;7289946;19;19923;-68
2023/12/13 11:19:50;;;;;;;;;;;;;;;10.34;88.32;99770.22;7278511;19;20122;-67
2023/12/13 11:22:23;;;;;;;;;;;;;;;10.37;88.59;99781.19;7292614;19;19922;-67
2023/12/13 11:24:51;;;;;;;;;;;;;;;10.40;88.05;99790.53;7288860;19;21409;-69
2023/12/13 11:27:19;;;;;;;;;;;;;;;10.37;87.41;99794.31;7287420;19;19922;-67
2023/12/13 11:29:47;;;;;;;;;;;;;;;10.34;86.68;99805.22;7294528;19;20226;-68
2023/12/13 11:32:15;;;;;;;;;;;;;;;10.33;86.72;99795.69;7291029;19;19918;-67
2023/12/13 11:34:44;;;;;;;;;;;;;;;10.34;87.17;99801.75;7291003;19;22539;-68
2023/12/13 11:37:11;;;;;;;;;;;;;;;10.39;86.59;99802.06;7294437;19;20261;-67
2023/12/13 11:39:39;;;;;;;;;;;;;;;10.40;86.43;99801.06;7304202;19;19915;-68
2023/12/13 11:42:07;;;;;;;;;;;;;;;10.39;86.41;99812.56;7295383;19;20008;-67
2023/12/13 11:44:36;;;;;;;;;;;;;;;10.29;84.88;99805.75;7296049;19;19919;-68
2023/12/13 11:47:05;;;;;;;;;;;;;;;10.32;85.27;99811.63;7304133;19;20220;-67
2023/12/13 11:49:32;;;;;;;;;;;;;;;10.28;84.43;99809.38;7321943;19;20344;-69
2023/12/13 11:52:00;;;;;;;;;;;;;;;10.27;84.79;99812.97;7297442;19;19988;-68
2023/12/13 11:54:28;;;;;;;;;;;;;;;10.27;84.61;99820.88;7314307;19;19934;-67
2023/12/13 11:56:55;;;;;;;;;;;;;;;10.25;84.54;99835.19;7310271;19;19922;-69
2023/12/13 11:59:24;;;;;;;;;;;;;;;10.22;83.61;99817.94;7303166;19;19966;-68
2023/12/13 12:01:52;;;;;;;;;;;;;;;10.23;84.58;99816.13;7312805;19;19942;-67
2023/12/13 12:04:19;;;;;;;;;;;;;;;10.23;85.28;99813.50;7300028;19;20014;-67
2023/12/13 12:06:47;;;;;;;;;;;;;;;10.23;85.61;99829.28;7304370;19;19919;-68
2023/12/13 12:09:16;;;;;;;;;;;;;;;10.21;86.11;99820.75;7290400;19;20292;-69
2023/12/13 12:11:43;;;;;;;;;;;;;;;10.22;85.75;99827.63;7302366;19;19918;-68
2023/12/13 12:14:11;;;;;;;;;;;;;;;10.19;85.84;99831.44;7303472;19;19964;-68
2023/12/13 12:16:38;;;;;;;;;;;;;;;10.18;86.00;99831.63;7278385;19;19914;-67
2023/12/13 12:19:06;;;;;;;;;;;;;;;10.12;86.21;99837.53;7291148;19;19919;-70
2023/12/13 12:21:35;;;;;;;;;;;;;;;10.08;86.50;99839.69;7294027;19;22141;-67
2023/12/13 12:24:03;;;;;;;;;;;;;;;10.08;86.18;99849.41;7290452;19;19907;-68
2023/12/13 12:26:30;;;;;;;;;;;;;;;10.06;86.98;99844.31;7299603;19;19931;-67
2023/12/13 12:28:58;;;;;;;;;;;;;;;10.03;87.46;99856.97;7282596;19;19918;-70
2023/12/13 12:31:25;;;;;;;;;;;;;;;10.03;86.63;99864.88;7297002;19;19919;-67
2023/12/13 12:33:56;;;;;;;;;;;;;;;10.03;86.87;99860.44;7298376;19;19919;-67
2023/12/13 12:36:24;;;;;;;;;;;;;;;10.07;88.51;99861.72;7315623;19;20814;-67
2023/12/13 12:38:52;;;;;;;;;;;;;;;10.08;88.27;99859.91;7314555;19;20318;-67
2023/12/13 12:41:22;;;;;;;;;;;;;;;10.12;87.97;99861.19;7304152;19;20568;-68
2023/12/13 12:43:50;;;;;;;;;;;;;;;10.13;89.52;99857.56;7272409;19;19925;-66
2023/12/13 12:46:18;;;;;;;;;;;;;;;10.11;90.48;99865.63;7272224;19;19918;-67